sensor_id;sensor_type;location;lat;lon;timestamp;temperature;humidity
5415;DHT22;2730;51.512;7.504;2022-07-06T04:26:48;14.70;99.90
5415;DHT22;2730;51.512;7.504;2022-07-06T04:29:15;14.90;99.90
5415;DHT22;2730;51.512;7.504;2022-07-06T04:31:42;14.90;99.90
5415;DHT22;2730;51.512;7.504;2022-07-06T04:34:09;15.00;99.90
5415;DHT22;2730;51.512;7.504;2022-07-06T04:36:38;15.00;99.90
5415;DHT22;2730;51.512;7.504;2022-07-06T04:39:05;15.10;99.90
5415;DHT22;2730;51.512;7.504;2022-07-06T04:41:32;15.20;99.90
5415;DHT22;2730;51.512;7.504;2022-07-06T04:44:00;15.40;99.90
5415;DHT22;2730;51.512;7.504;2022-07-06T04:46:27;15.40;99.90
5415;DHT22;2730;51.512;7.504;2022-07-06T04:48:54;15.30;99.90
5415;DHT22;2730;51.512;7.504;2022-07-06T04:51:21;15.30;99.90
5415;DHT22;2730;51.512;7.504;2022-07-06T04:53:48;15.20;99.90
5415;DHT22;2730;51.512;7.504;2022-07-06T04:56:15;15.20;99.90
5415;DHT22;2730;51.512;7.504;2022-07-06T05:01:17;15.00;99.90
5415;DHT22;2730;51.512;7.504;2022-07-06T05:03:43;15.00;99.90
5415;DHT22;2730;51.512;7.504;2022-07-06T05:06:10;14.90;99.90
5415;DHT22;2730;51.512;7.504;2022-07-06T05:08:37;15.00;99.90
5415;DHT22;2730;51.512;7.504;2022-07-06T05:11:05;15.00;99.90
5415;DHT22;2730;51.512;7.504;2022-07-06T05:13:31;15.00;99.90
5415;DHT22;2730;51.512;7.504;2022-07-06T05:15:58;15.00;99.90
5415;DHT22;2730;51.512;7.504;2022-07-06T05:18:26;15.00;99.90
5415;DHT22;2730;51.512;7.504;2022-07-06T05:20:53;15.00;99.90
5415;DHT22;2730;51.512;7.504;2022-07-06T05:23:20;14.90;99.90
5415;DHT22;2730;51.512;7.504;2022-07-06T05:25:47;14.90;99.90
5415;DHT22;2730;51.512;7.504;2022-07-06T05:28:14;15.20;99.90
5415;DHT22;2730;51.512;7.504;2022-07-06T05:30:40;15.50;99.90
5415;DHT22;2730;51.512;7.504;2022-07-06T05:33:07;16.00;99.90
5415;DHT22;2730;51.512;7.504;2022-07-06T05:35:35;16.30;99.90
5415;DHT22;2730;51.512;7.504;2022-07-06T05:38:02;16.60;99.90
5415;DHT22;2730;51.512;7.504;2022-07-06T05:40:30;17.30;99.90
5415;DHT22;2730;51.512;7.504;2022-07-06T05:42:57;18.10;99.90
5415;DHT22;2730;51.512;7.504;2022-07-06T05:45:23;18.40;99.90
5415;DHT22;2730;51.512;7.504;2022-07-06T05:47:50;17.90;99.90
5415;DHT22;2730;51.512;7.504;2022-07-06T05:50:36;18.00;99.90
5415;DHT22;2730;51.512;7.504;2022-07-06T05:53:04;18.10;99.90
5415;DHT22;2730;51.512;7.504;2022-07-06T05:55:31;18.20;99.90
5415;DHT22;2730;51.512;7.504;2022-07-06T05:57:58;18.10;99.90
5415;DHT22;2730;51.512;7.504;2022-07-06T06:00:26;17.60;99.90
5415;DHT22;2730;51.512;7.504;2022-07-06T06:02:54;17.00;99.90
5415;DHT22;2730;51.512;7.504;2022-07-06T06:05:21;16.90;99.90
5415;DHT22;2730;51.512;7.504;2022-07-06T06:07:49;17.00;99.90
5415;DHT22;2730;51.512;7.504;2022-07-06T06:10:19;17.20;99.90
5415;DHT22;2730;51.512;7.504;2022-07-06T06:12:47;17.80;99.90
5415;DHT22;2730;51.512;7.504;2022-07-06T06:15:14;18.50;99.90
5415;DHT22;2730;51.512;7.504;2022-07-06T06:17:41;20.00;99.90
5415;DHT22;2730;51.512;7.504;2022-07-06T06:20:11;20.60;99.90
5415;DHT22;2730;51.512;7.504;2022-07-06T06:22:46;21.10;99.90
5415;DHT22;2730;51.512;7.504;2022-07-06T06:25:14;20.40;99.90
5415;DHT22;2730;51.512;7.504;2022-07-06T06:27:42;19.20;99.90
5415;DHT22;2730;51.512;7.504;2022-07-06T06:30:09;18.50;99.90
5415;DHT22;2730;51.512;7.504;2022-07-06T06:32:36;18.20;99.90
5415;DHT22;2730;51.512;7.504;2022-07-06T06:35:04;18.70;99.90
5415;DHT22;2730;51.512;7.504;2022-07-06T06:37:31;18.40;99.90
5415;DHT22;2730;51.512;7.504;2022-07-06T06:39:58;18.10;99.90
5415;DHT22;2730;51.512;7.504;2022-07-06T06:42:26;17.90;99.90
5415;DHT22;2730;51.512;7.504;2022-07-06T06:44:53;18.00;99.90
5415;DHT22;2730;51.512;7.504;2022-07-06T06:47:20;18.50;99.90
5415;DHT22;2730;51.512;7.504;2022-07-06T06:49:47;18.70;99.90
5415;DHT22;2730;51.512;7.504;2022-07-06T06:52:13;18.60;99.90
5415;DHT22;2730;51.512;7.504;2022-07-06T06:54:40;18.30;99.90
5415;DHT22;2730;51.512;7.504;2022-07-06T06:57:07;18.40;99.90
5415;DHT22;2730;51.512;7.504;2022-07-06T06:59:35;18.30;99.90
5415;DHT22;2730;51.512;7.504;2022-07-06T07:02:03;18.10;99.90
5415;DHT22;2730;51.512;7.504;2022-07-06T07:04:30;18.00;99.90
5415;DHT22;2730;51.512;7.504;2022-07-06T07:06:57;17.70;99.90
5415;DHT22;2730;51.512;7.504;2022-07-06T07:09:24;17.50;99.90
5415;DHT22;2730;51.512;7.504;2022-07-06T07:11:50;17.40;99.90
5415;DHT22;2730;51.512;7.504;2022-07-06T07:14:17;17.10;99.90
5415;DHT22;2730;51.512;7.504;2022-07-06T07:16:45;16.80;99.90
5415;DHT22;2730;51.512;7.504;2022-07-06T07:19:12;16.90;99.90
5415;DHT22;2730;51.512;7.504;2022-07-06T07:21:39;16.90;99.90
5415;DHT22;2730;51.512;7.504;2022-07-06T07:24:07;17.00;99.90
5415;DHT22;2730;51.512;7.504;2022-07-06T07:26:34;17.10;99.90
5415;DHT22;2730;51.512;7.504;2022-07-06T07:29:00;17.10;99.90
5415;DHT22;2730;51.512;7.504;2022-07-06T07:31:27;17.30;99.90
5415;DHT22;2730;51.512;7.504;2022-07-06T07:33:55;17.40;99.90
5415;DHT22;2730;51.512;7.504;2022-07-06T07:36:24;17.50;99.90
5415;DHT22;2730;51.512;7.504;2022-07-06T07:38:51;18.00;99.90
5415;DHT22;2730;51.512;7.504;2022-07-06T07:41:18;18.40;99.90
5415;DHT22;2730;51.512;7.504;2022-07-06T07:43:45;18.80;99.90
5415;DHT22;2730;51.512;7.504;2022-07-06T07:46:12;19.00;99.90
5415;DHT22;2730;51.512;7.504;2022-07-06T07:48:38;18.80;99.90
5415;DHT22;2730;51.512;7.504;2022-07-06T07:51:07;18.10;99.90
5415;DHT22;2730;51.512;7.504;2022-07-06T07:53:34;17.90;99.90
5415;DHT22;2730;51.512;7.504;2022-07-06T07:56:01;17.80;99.90
5415;DHT22;2730;51.512;7.504;2022-07-06T07:58:28;17.90;99.90
5415;DHT22;2730;51.512;7.504;2022-07-06T08:00:55;18.00;99.90
5415;DHT22;2730;51.512;7.504;2022-07-06T08:03:21;18.20;99.90
5415;DHT22;2730;51.512;7.504;2022-07-06T08:05:48;18.40;99.90
5415;DHT22;2730;51.512;7.504;2022-07-06T08:08:17;18.40;99.90
5415;DHT22;2730;51.512;7.504;2022-07-06T08:10:44;18.70;99.90
5415;DHT22;2730;51.512;7.504;2022-07-06T08:13:11;19.00;99.90
5415;DHT22;2730;51.512;7.504;2022-07-06T08:15:40;19.40;99.90
5415;DHT22;2730;51.512;7.504;2022-07-06T08:18:07;19.50;99.90
5415;DHT22;2730;51.512;7.504;2022-07-06T08:20:34;19.40;99.90
5415;DHT22;2730;51.512;7.504;2022-07-06T08:23:01;19.00;99.90
5415;DHT22;2730;51.512;7.504;2022-07-06T08:25:29;19.30;99.90
5415;DHT22;2730;51.512;7.504;2022-07-06T08:27:56;19.70;99.90
5415;DHT22;2730;51.512;7.504;2022-07-06T08:30:23;19.70;99.90
5415;DHT22;2730;51.512;7.504;2022-07-06T08:32:50;19.20;99.90
5415;DHT22;2730;51.512;7.504;2022-07-06T08:35:18;18.30;99.90
5415;DHT22;2730;51.512;7.504;2022-07-06T08:37:45;18.00;99.90
5415;DHT22;2730;51.512;7.504;2022-07-06T08:40:12;17.80;99.90
5415;DHT22;2730;51.512;7.504;2022-07-06T08:42:42;17.50;99.90
5415;DHT22;2730;51.512;7.504;2022-07-06T08:45:10;17.60;99.90
5415;DHT22;2730;51.512;7.504;2022-07-06T08:47:37;17.70;99.90
5415;DHT22;2730;51.512;7.504;2022-07-06T08:50:06;17.80;99.90
5415;DHT22;2730;51.512;7.504;2022-07-06T08:52:34;18.00;99.90
5415;DHT22;2730;51.512;7.504;2022-07-06T08:55:03;18.10;99.90
5415;DHT22;2730;51.512;7.504;2022-07-06T08:57:30;18.20;99.90
5415;DHT22;2730;51.512;7.504;2022-07-06T08:59:58;18.20;99.90
5415;DHT22;2730;51.512;7.504;2022-07-06T09:02:25;18.10;99.90
5415;DHT22;2730;51.512;7.504;2022-07-06T09:04:55;17.80;99.90
5415;DHT22;2730;51.512;7.504;2022-07-06T09:07:23;17.80;99.90
5415;DHT22;2730;51.512;7.504;2022-07-06T09:09:53;17.80;99.90
5415;DHT22;2730;51.512;7.504;2022-07-06T09:12:20;17.50;99.90
5415;DHT22;2730;51.512;7.504;2022-07-06T09:14:47;17.60;99.90
5415;DHT22;2730;51.512;7.504;2022-07-06T09:17:16;17.70;99.90
5415;DHT22;2730;51.512;7.504;2022-07-06T09:19:45;17.90;99.90
5415;DHT22;2730;51.512;7.504;2022-07-06T09:22:26;18.30;99.90
5415;DHT22;2730;51.512;7.504;2022-07-06T09:24:53;18.40;99.90
5415;DHT22;2730;51.512;7.504;2022-07-06T09:27:19;18.40;99.90
5415;DHT22;2730;51.512;7.504;2022-07-06T09:29:48;18.80;99.90
5415;DHT22;2730;51.512;7.504;2022-07-06T09:32:20;18.70;99.90
5415;DHT22;2730;51.512;7.504;2022-07-06T09:34:47;18.80;99.90
5415;DHT22;2730;51.512;7.504;2022-07-06T09:37:14;19.00;99.90
5415;DHT22;2730;51.512;7.504;2022-07-06T09:39:42;19.00;99.90
5415;DHT22;2730;51.512;7.504;2022-07-06T09:42:09;19.20;99.90
5415;DHT22;2730;51.512;7.504;2022-07-06T09:44:38;19.40;99.90
5415;DHT22;2730;51.512;7.504;2022-07-06T09:47:06;19.50;99.90
5415;DHT22;2730;51.512;7.504;2022-07-06T09:49:35;19.20;99.90
5415;DHT22;2730;51.512;7.504;2022-07-06T09:52:04;19.50;99.90
5415;DHT22;2730;51.512;7.504;2022-07-06T09:54:33;19.70;99.90
5415;DHT22;2730;51.512;7.504;2022-07-06T09:57:00;20.40;99.90
5415;DHT22;2730;51.512;7.504;2022-07-06T09:59:28;21.00;99.90
5415;DHT22;2730;51.512;7.504;2022-07-06T10:01:58;21.70;99.10
5415;DHT22;2730;51.512;7.504;2022-07-06T10:04:26;22.80;98.00
5415;DHT22;2730;51.512;7.504;2022-07-06T10:06:55;23.10;97.20
5415;DHT22;2730;51.512;7.504;2022-07-06T10:09:24;22.10;97.30
5415;DHT22;2730;51.512;7.504;2022-07-06T10:11:52;21.70;98.40
5415;DHT22;2730;51.512;7.504;2022-07-06T10:14:22;21.70;98.20
5415;DHT22;2730;51.512;7.504;2022-07-06T10:16:49;20.70;98.50
5415;DHT22;2730;51.512;7.504;2022-07-06T10:19:18;20.50;99.00
5415;DHT22;2730;51.512;7.504;2022-07-06T10:21:46;20.40;99.50
5415;DHT22;2730;51.512;7.504;2022-07-06T10:24:14;20.70;99.10
5415;DHT22;2730;51.512;7.504;2022-07-06T10:26:42;21.30;98.90
5415;DHT22;2730;51.512;7.504;2022-07-06T10:29:09;22.50;98.00
5415;DHT22;2730;51.512;7.504;2022-07-06T10:31:39;23.30;97.10
5415;DHT22;2730;51.512;7.504;2022-07-06T10:34:09;23.40;96.40
5415;DHT22;2730;51.512;7.504;2022-07-06T10:36:38;23.30;96.30
5415;DHT22;2730;51.512;7.504;2022-07-06T10:39:05;22.80;95.20
5415;DHT22;2730;51.512;7.504;2022-07-06T10:41:47;22.60;94.50
5415;DHT22;2730;51.512;7.504;2022-07-06T10:44:15;22.10;94.60
5415;DHT22;2730;51.512;7.504;2022-07-06T10:46:50;22.60;95.40
5415;DHT22;2730;51.512;7.504;2022-07-06T10:49:18;23.20;94.60
5415;DHT22;2730;51.512;7.504;2022-07-06T10:51:45;23.30;94.60
5415;DHT22;2730;51.512;7.504;2022-07-06T10:54:13;22.20;95.60
5415;DHT22;2730;51.512;7.504;2022-07-06T10:56:42;21.90;95.60
5415;DHT22;2730;51.512;7.504;2022-07-06T10:59:12;21.60;95.90
5415;DHT22;2730;51.512;7.504;2022-07-06T11:01:40;21.40;96.00
5415;DHT22;2730;51.512;7.504;2022-07-06T11:04:09;21.60;96.10
5415;DHT22;2730;51.512;7.504;2022-07-06T11:06:38;21.80;96.00
5415;DHT22;2730;51.512;7.504;2022-07-06T11:09:06;20.80;96.50
5415;DHT22;2730;51.512;7.504;2022-07-06T11:11:41;20.30;96.40
5415;DHT22;2730;51.512;7.504;2022-07-06T11:14:13;20.50;96.70
5415;DHT22;2730;51.512;7.504;2022-07-06T11:17:02;20.80;96.60
5415;DHT22;2730;51.512;7.504;2022-07-06T11:19:30;21.50;96.40
5415;DHT22;2730;51.512;7.504;2022-07-06T11:22:04;21.80;96.20
5415;DHT22;2730;51.512;7.504;2022-07-06T11:24:33;21.90;95.60
5415;DHT22;2730;51.512;7.504;2022-07-06T11:27:00;21.60;95.50
5415;DHT22;2730;51.512;7.504;2022-07-06T11:29:29;22.00;95.00
5415;DHT22;2730;51.512;7.504;2022-07-06T11:31:58;21.70;94.50
5415;DHT22;2730;51.512;7.504;2022-07-06T11:34:27;21.20;95.80
5415;DHT22;2730;51.512;7.504;2022-07-06T11:36:55;21.60;95.80
5415;DHT22;2730;51.512;7.504;2022-07-06T11:39:23;21.60;95.60
5415;DHT22;2730;51.512;7.504;2022-07-06T11:41:54;21.20;95.20
5415;DHT22;2730;51.512;7.504;2022-07-06T11:44:21;20.90;95.40
5415;DHT22;2730;51.512;7.504;2022-07-06T11:46:49;20.30;95.70
5415;DHT22;2730;51.512;7.504;2022-07-06T11:49:16;20.30;96.10
5415;DHT22;2730;51.512;7.504;2022-07-06T11:51:45;20.10;95.90
5415;DHT22;2730;51.512;7.504;2022-07-06T11:54:14;20.50;96.20
5415;DHT22;2730;51.512;7.504;2022-07-06T11:56:46;20.90;96.00
5415;DHT22;2730;51.512;7.504;2022-07-06T11:59:15;20.40;96.80
5415;DHT22;2730;51.512;7.504;2022-07-06T12:01:42;20.20;96.70
5415;DHT22;2730;51.512;7.504;2022-07-06T12:04:11;20.40;96.50
5415;DHT22;2730;51.512;7.504;2022-07-06T12:06:38;20.70;96.40
5415;DHT22;2730;51.512;7.504;2022-07-06T12:09:05;21.10;96.60
5415;DHT22;2730;51.512;7.504;2022-07-06T12:11:34;21.60;96.10
5415;DHT22;2730;51.512;7.504;2022-07-06T12:14:03;21.30;94.70
5415;DHT22;2730;51.512;7.504;2022-07-06T12:16:38;21.30;95.30
5415;DHT22;2730;51.512;7.504;2022-07-06T12:19:06;21.40;94.90
5415;DHT22;2730;51.512;7.504;2022-07-06T12:21:35;21.70;94.80
5415;DHT22;2730;51.512;7.504;2022-07-06T12:24:07;21.90;94.60
5415;DHT22;2730;51.512;7.504;2022-07-06T12:26:39;22.00;94.90
5415;DHT22;2730;51.512;7.504;2022-07-06T12:29:08;22.20;95.20
5415;DHT22;2730;51.512;7.504;2022-07-06T12:31:37;22.30;95.00
5415;DHT22;2730;51.512;7.504;2022-07-06T12:34:05;22.10;93.60
5415;DHT22;2730;51.512;7.504;2022-07-06T12:36:41;22.20;93.30
5415;DHT22;2730;51.512;7.504;2022-07-06T12:39:11;22.50;94.20
5415;DHT22;2730;51.512;7.504;2022-07-06T12:41:44;22.90;93.70
5415;DHT22;2730;51.512;7.504;2022-07-06T12:44:11;22.70;92.90
5415;DHT22;2730;51.512;7.504;2022-07-06T12:46:39;22.50;93.50
5415;DHT22;2730;51.512;7.504;2022-07-06T12:49:18;22.90;93.60
5415;DHT22;2730;51.512;7.504;2022-07-06T12:51:51;22.90;93.40
5415;DHT22;2730;51.512;7.504;2022-07-06T12:54:19;22.90;93.00
5415;DHT22;2730;51.512;7.504;2022-07-06T12:59:40;22.20;93.90
5415;DHT22;2730;51.512;7.504;2022-07-06T13:02:08;22.00;93.40
5415;DHT22;2730;51.512;7.504;2022-07-06T13:04:36;22.00;93.30
5415;DHT22;2730;51.512;7.504;2022-07-06T13:07:05;22.30;92.90
5415;DHT22;2730;51.512;7.504;2022-07-06T13:09:32;22.60;92.80
5415;DHT22;2730;51.512;7.504;2022-07-06T13:11:59;22.30;92.00
5415;DHT22;2730;51.512;7.504;2022-07-06T13:14:25;22.20;92.70
5415;DHT22;2730;51.512;7.504;2022-07-06T13:16:52;22.20;93.40
5415;DHT22;2730;51.512;7.504;2022-07-06T13:19:20;22.60;92.30
5415;DHT22;2730;51.512;7.504;2022-07-06T13:21:47;22.80;91.10
5415;DHT22;2730;51.512;7.504;2022-07-06T13:24:16;22.50;91.30
5415;DHT22;2730;51.512;7.504;2022-07-06T13:26:43;22.60;91.20
5415;DHT22;2730;51.512;7.504;2022-07-06T13:29:10;22.80;90.80
5415;DHT22;2730;51.512;7.504;2022-07-06T13:31:38;22.50;91.30
5415;DHT22;2730;51.512;7.504;2022-07-06T13:34:05;22.60;91.30
5415;DHT22;2730;51.512;7.504;2022-07-06T13:36:33;22.40;91.90
5415;DHT22;2730;51.512;7.504;2022-07-06T13:38:59;22.80;91.90
5415;DHT22;2730;51.512;7.504;2022-07-06T13:41:28;22.70;91.90
5415;DHT22;2730;51.512;7.504;2022-07-06T13:43:55;22.80;92.00
5415;DHT22;2730;51.512;7.504;2022-07-06T13:46:21;23.00;91.70
5415;DHT22;2730;51.512;7.504;2022-07-06T13:48:48;23.00;91.90
5415;DHT22;2730;51.512;7.504;2022-07-06T13:51:15;22.90;91.40
5415;DHT22;2730;51.512;7.504;2022-07-06T13:53:42;23.10;91.00
5415;DHT22;2730;51.512;7.504;2022-07-06T13:56:09;23.00;90.90
5415;DHT22;2730;51.512;7.504;2022-07-06T13:58:37;22.80;90.90
5415;DHT22;2730;51.512;7.504;2022-07-06T14:01:05;22.70;91.40
5415;DHT22;2730;51.512;7.504;2022-07-06T14:03:31;22.90;91.10
5415;DHT22;2730;51.512;7.504;2022-07-06T14:05:59;22.60;91.10
5415;DHT22;2730;51.512;7.504;2022-07-06T14:08:27;22.50;91.60
5415;DHT22;2730;51.512;7.504;2022-07-06T14:10:54;22.60;91.40
5415;DHT22;2730;51.512;7.504;2022-07-06T14:13:22;23.00;91.30
5415;DHT22;2730;51.512;7.504;2022-07-06T14:15:50;23.00;91.30
5415;DHT22;2730;51.512;7.504;2022-07-06T14:18:17;23.30;91.00
5415;DHT22;2730;51.512;7.504;2022-07-06T14:20:44;23.20;91.00
5415;DHT22;2730;51.512;7.504;2022-07-06T14:23:11;23.40;91.10
5415;DHT22;2730;51.512;7.504;2022-07-06T14:25:39;23.30;91.00
5415;DHT22;2730;51.512;7.504;2022-07-06T14:28:06;23.20;91.10
5415;DHT22;2730;51.512;7.504;2022-07-06T14:30:33;23.10;91.00
5415;DHT22;2730;51.512;7.504;2022-07-06T14:33:03;23.20;90.50
5415;DHT22;2730;51.512;7.504;2022-07-06T14:35:33;22.90;90.80
5415;DHT22;2730;51.512;7.504;2022-07-06T14:38:00;22.70;91.00
5415;DHT22;2730;51.512;7.504;2022-07-06T14:40:27;22.80;91.10
5415;DHT22;2730;51.512;7.504;2022-07-06T14:42:54;22.60;91.50
5415;DHT22;2730;51.512;7.504;2022-07-06T14:45:21;22.30;91.10
5415;DHT22;2730;51.512;7.504;2022-07-06T14:47:48;22.00;91.70
5415;DHT22;2730;51.512;7.504;2022-07-06T14:50:16;22.00;91.60
5415;DHT22;2730;51.512;7.504;2022-07-06T14:52:43;22.30;91.60
5415;DHT22;2730;51.512;7.504;2022-07-06T14:55:11;22.40;91.20
5415;DHT22;2730;51.512;7.504;2022-07-06T14:57:38;22.40;91.50
5415;DHT22;2730;51.512;7.504;2022-07-06T15:00:05;22.00;91.60
5415;DHT22;2730;51.512;7.504;2022-07-06T15:02:32;21.90;91.70
5415;DHT22;2730;51.512;7.504;2022-07-06T15:04:59;21.90;91.70
5415;DHT22;2730;51.512;7.504;2022-07-06T15:07:28;21.80;91.80
5415;DHT22;2730;51.512;7.504;2022-07-06T15:09:55;21.80;91.70
5415;DHT22;2730;51.512;7.504;2022-07-06T15:12:22;21.80;92.10
5415;DHT22;2730;51.512;7.504;2022-07-06T15:14:49;22.10;92.00
5415;DHT22;2730;51.512;7.504;2022-07-06T15:17:16;22.30;91.70
5415;DHT22;2730;51.512;7.504;2022-07-06T15:19:43;22.40;91.80
5415;DHT22;2730;51.512;7.504;2022-07-06T15:22:10;22.40;91.70
5415;DHT22;2730;51.512;7.504;2022-07-06T15:24:38;22.20;91.50
5415;DHT22;2730;51.512;7.504;2022-07-06T15:27:06;22.10;91.80
5415;DHT22;2730;51.512;7.504;2022-07-06T15:29:33;22.10;91.80
5415;DHT22;2730;51.512;7.504;2022-07-06T15:32:00;22.10;91.60
5415;DHT22;2730;51.512;7.504;2022-07-06T15:34:27;22.10;91.50
5415;DHT22;2730;51.512;7.504;2022-07-06T15:36:54;22.00;91.70
5415;DHT22;2730;51.512;7.504;2022-07-06T15:39:22;22.00;91.80
5415;DHT22;2730;51.512;7.504;2022-07-06T15:41:50;22.10;91.60
5415;DHT22;2730;51.512;7.504;2022-07-06T15:44:17;22.10;91.80
5415;DHT22;2730;51.512;7.504;2022-07-06T15:46:44;22.20;91.90
5415;DHT22;2730;51.512;7.504;2022-07-06T15:49:14;22.40;91.40
5415;DHT22;2730;51.512;7.504;2022-07-06T15:51:42;22.20;91.90
5415;DHT22;2730;51.512;7.504;2022-07-06T15:54:09;22.10;91.80
5415;DHT22;2730;51.512;7.504;2022-07-06T15:56:36;22.10;91.70
5415;DHT22;2730;51.512;7.504;2022-07-06T15:59:06;22.10;91.90
5415;DHT22;2730;51.512;7.504;2022-07-06T16:01:33;22.00;92.00
5415;DHT22;2730;51.512;7.504;2022-07-06T16:04:00;22.10;91.90
5415;DHT22;2730;51.512;7.504;2022-07-06T16:06:27;22.30;91.80
5415;DHT22;2730;51.512;7.504;2022-07-06T16:08:54;22.40;91.60
5415;DHT22;2730;51.512;7.504;2022-07-06T16:11:20;22.40;91.40
5415;DHT22;2730;51.512;7.504;2022-07-06T16:13:47;22.30;91.80
5415;DHT22;2730;51.512;7.504;2022-07-06T16:16:16;22.30;91.60
5415;DHT22;2730;51.512;7.504;2022-07-06T16:18:42;22.40;91.80
5415;DHT22;2730;51.512;7.504;2022-07-06T16:21:09;22.50;91.70
5415;DHT22;2730;51.512;7.504;2022-07-06T16:23:36;22.70;91.90
5415;DHT22;2730;51.512;7.504;2022-07-06T16:26:05;22.90;91.50
5415;DHT22;2730;51.512;7.504;2022-07-06T16:28:33;22.90;91.40
5415;DHT22;2730;51.512;7.504;2022-07-06T16:31:00;22.80;90.90
5415;DHT22;2730;51.512;7.504;2022-07-06T16:33:28;22.50;91.10
5415;DHT22;2730;51.512;7.504;2022-07-06T16:36:00;22.30;91.80
5415;DHT22;2730;51.512;7.504;2022-07-06T16:38:27;22.40;91.50
5415;DHT22;2730;51.512;7.504;2022-07-06T16:40:54;22.50;91.60
5415;DHT22;2730;51.512;7.504;2022-07-06T16:43:21;22.50;91.40
5415;DHT22;2730;51.512;7.504;2022-07-06T16:45:48;22.40;91.30
5415;DHT22;2730;51.512;7.504;2022-07-06T16:48:16;22.40;91.70
5415;DHT22;2730;51.512;7.504;2022-07-06T16:50:44;22.40;91.30
5415;DHT22;2730;51.512;7.504;2022-07-06T16:53:11;22.30;91.40
5415;DHT22;2730;51.512;7.504;2022-07-06T16:55:38;22.40;91.50
5415;DHT22;2730;51.512;7.504;2022-07-06T16:58:05;22.40;91.90
5415;DHT22;2730;51.512;7.504;2022-07-06T17:00:32;22.40;91.40
5415;DHT22;2730;51.512;7.504;2022-07-06T17:03:00;22.30;91.40
5415;DHT22;2730;51.512;7.504;2022-07-06T17:05:27;22.20;91.70
5415;DHT22;2730;51.512;7.504;2022-07-06T17:07:55;21.90;91.60
5415;DHT22;2730;51.512;7.504;2022-07-06T17:10:22;22.00;91.70
5415;DHT22;2730;51.512;7.504;2022-07-06T17:12:49;21.90;91.60
5415;DHT22;2730;51.512;7.504;2022-07-06T17:15:16;21.90;91.70
5415;DHT22;2730;51.512;7.504;2022-07-06T17:17:43;21.90;91.80
5415;DHT22;2730;51.512;7.504;2022-07-06T17:20:10;21.90;91.80
5415;DHT22;2730;51.512;7.504;2022-07-06T17:22:37;21.90;91.70
5415;DHT22;2730;51.512;7.504;2022-07-06T17:25:06;21.80;91.60
5415;DHT22;2730;51.512;7.504;2022-07-06T17:27:33;21.70;92.00
5415;DHT22;2730;51.512;7.504;2022-07-06T17:30:00;21.80;91.80
5415;DHT22;2730;51.512;7.504;2022-07-06T17:32:27;21.70;91.90
5415;DHT22;2730;51.512;7.504;2022-07-06T17:34:53;21.80;92.00
5415;DHT22;2730;51.512;7.504;2022-07-06T17:37:20;21.90;92.00
5415;DHT22;2730;51.512;7.504;2022-07-06T17:39:47;21.70;92.20
5415;DHT22;2730;51.512;7.504;2022-07-06T17:42:15;21.60;92.40
5415;DHT22;2730;51.512;7.504;2022-07-06T17:44:46;21.50;92.60
5415;DHT22;2730;51.512;7.504;2022-07-06T17:47:13;21.50;92.40
5415;DHT22;2730;51.512;7.504;2022-07-06T17:49:40;21.30;92.60
5415;DHT22;2730;51.512;7.504;2022-07-06T17:52:07;21.20;92.70
5415;DHT22;2730;51.512;7.504;2022-07-06T17:54:40;21.20;92.90
5415;DHT22;2730;51.512;7.504;2022-07-06T17:57:07;21.30;93.00
5415;DHT22;2730;51.512;7.504;2022-07-06T17:59:35;21.30;93.20
5415;DHT22;2730;51.512;7.504;2022-07-06T18:02:02;21.10;93.30
5415;DHT22;2730;51.512;7.504;2022-07-06T18:04:29;21.00;93.40
5415;DHT22;2730;51.512;7.504;2022-07-06T18:06:56;21.10;93.30
5415;DHT22;2730;51.512;7.504;2022-07-06T18:09:23;21.10;93.40
5415;DHT22;2730;51.512;7.504;2022-07-06T18:11:50;21.00;93.50
5415;DHT22;2730;51.512;7.504;2022-07-06T18:14:17;20.80;93.70
5415;DHT22;2730;51.512;7.504;2022-07-06T18:16:46;20.80;93.80
5415;DHT22;2730;51.512;7.504;2022-07-06T18:19:13;20.70;93.80
5415;DHT22;2730;51.512;7.504;2022-07-06T18:21:39;20.70;94.00
5415;DHT22;2730;51.512;7.504;2022-07-06T18:24:07;20.60;93.90
5415;DHT22;2730;51.512;7.504;2022-07-06T18:26:34;20.50;94.00
5415;DHT22;2730;51.512;7.504;2022-07-06T18:29:01;20.60;94.20
5415;DHT22;2730;51.512;7.504;2022-07-06T18:31:28;20.60;93.90
5415;DHT22;2730;51.512;7.504;2022-07-06T18:33:56;20.50;94.00
5415;DHT22;2730;51.512;7.504;2022-07-06T18:36:23;20.40;94.10
5415;DHT22;2730;51.512;7.504;2022-07-06T18:38:52;20.50;94.30
5415;DHT22;2730;51.512;7.504;2022-07-06T18:41:19;20.50;94.20
5415;DHT22;2730;51.512;7.504;2022-07-06T18:43:45;20.40;94.30
5415;DHT22;2730;51.512;7.504;2022-07-06T18:46:12;20.30;94.40
5415;DHT22;2730;51.512;7.504;2022-07-06T18:48:39;20.30;94.50
5415;DHT22;2730;51.512;7.504;2022-07-06T18:51:08;20.20;94.50
5415;DHT22;2730;51.512;7.504;2022-07-06T18:53:34;20.30;94.70
5415;DHT22;2730;51.512;7.504;2022-07-06T18:56:02;20.10;94.80
5415;DHT22;2730;51.512;7.504;2022-07-06T18:58:29;20.10;94.90
5415;DHT22;2730;51.512;7.504;2022-07-06T19:00:55;20.00;95.00
5415;DHT22;2730;51.512;7.504;2022-07-06T19:03:22;20.00;95.10
5415;DHT22;2730;51.512;7.504;2022-07-06T19:05:49;20.10;95.20
5415;DHT22;2730;51.512;7.504;2022-07-06T19:08:17;20.10;95.20
5415;DHT22;2730;51.512;7.504;2022-07-06T19:10:44;20.10;95.20
5415;DHT22;2730;51.512;7.504;2022-07-06T19:13:12;20.10;95.20
5415;DHT22;2730;51.512;7.504;2022-07-06T19:15:39;20.10;95.30
5415;DHT22;2730;51.512;7.504;2022-07-06T19:18:06;20.10;95.60
5415;DHT22;2730;51.512;7.504;2022-07-06T19:20:32;20.20;95.60
5415;DHT22;2730;51.512;7.504;2022-07-06T19:22:59;20.10;95.60
5415;DHT22;2730;51.512;7.504;2022-07-06T19:25:28;20.10;95.70
5415;DHT22;2730;51.512;7.504;2022-07-06T19:27:54;20.10;95.80
5415;DHT22;2730;51.512;7.504;2022-07-06T19:30:21;20.10;96.20
5415;DHT22;2730;51.512;7.504;2022-07-06T19:32:48;20.00;96.20
5415;DHT22;2730;51.512;7.504;2022-07-06T19:35:15;19.90;96.60
5415;DHT22;2730;51.512;7.504;2022-07-06T19:37:42;19.90;96.70
5415;DHT22;2730;51.512;7.504;2022-07-06T19:40:09;19.80;97.00
5415;DHT22;2730;51.512;7.504;2022-07-06T19:42:38;19.80;96.90
5415;DHT22;2730;51.512;7.504;2022-07-06T19:45:05;19.80;96.70
5415;DHT22;2730;51.512;7.504;2022-07-06T19:47:32;19.80;96.80
5415;DHT22;2730;51.512;7.504;2022-07-06T19:50:00;19.70;96.80
5415;DHT22;2730;51.512;7.504;2022-07-06T19:52:26;19.70;96.90
5415;DHT22;2730;51.512;7.504;2022-07-06T19:54:53;19.70;97.00
5415;DHT22;2730;51.512;7.504;2022-07-06T19:57:20;19.70;97.00
5415;DHT22;2730;51.512;7.504;2022-07-06T19:59:48;19.70;97.10
5415;DHT22;2730;51.512;7.504;2022-07-06T20:02:15;19.70;97.10
5415;DHT22;2730;51.512;7.504;2022-07-06T20:04:42;19.80;97.10
5415;DHT22;2730;51.512;7.504;2022-07-06T20:07:09;19.70;97.00
5415;DHT22;2730;51.512;7.504;2022-07-06T20:09:35;19.80;96.90
5415;DHT22;2730;51.512;7.504;2022-07-06T20:12:03;19.80;97.00
5415;DHT22;2730;51.512;7.504;2022-07-06T20:14:30;19.70;97.00
5415;DHT22;2730;51.512;7.504;2022-07-06T20:16:58;19.70;97.00
5415;DHT22;2730;51.512;7.504;2022-07-06T20:19:25;19.60;97.00
5415;DHT22;2730;51.512;7.504;2022-07-06T20:21:52;19.60;97.10
5415;DHT22;2730;51.512;7.504;2022-07-06T20:24:19;19.50;97.20
5415;DHT22;2730;51.512;7.504;2022-07-06T20:26:46;19.60;97.30
5415;DHT22;2730;51.512;7.504;2022-07-06T20:29:15;19.60;97.30
5415;DHT22;2730;51.512;7.504;2022-07-06T20:31:42;19.50;97.30
5415;DHT22;2730;51.512;7.504;2022-07-06T20:34:10;19.60;97.50
5415;DHT22;2730;51.512;7.504;2022-07-06T20:36:37;19.60;97.60